Terminal Aerodrome Forecast
Issued by NWS

Home | Current Version | Previous Version | Text Only | Print | Product List | Glossary On
Versions: 1 2 3 4 5 6 7 8 9 10 11 12 13 14 15 16 17 18 19
305
FTUS44 KMAF 292320
TAFHOB
TAF
KHOB 292320Z 3000/3024 05007KT P6SM FEW050 BKN100
      TEMPO 3000/3004 VRB15G25KT 6SM TSRA OVC045CB
     FM300400 01008KT P6SM OVC004
     FM301600 05008KT P6SM SCT018 BKN130 OVC250=

USA.gov is the U.S. government's official web portal to all federal, state and local government web resources and services.